Riley, Oregon
Current Conditions -  °F | °C
As of 12:53 PM on Monday 24 Nov 2014 (Local Time) from KBNO Reporting Station
Clear Clear  
Wind Chill: 37°   Ceiling: Unl
Heat Index: 41°   Visibility: 10mi
Dew Point: 27°   Wind: 6mph
Humidity: 57%   Direction: 190°S
Pressure: 30.39"   Gusts: NA
Location:  43.54°N, 119.51°W
Report Text: KBNO 242053Z AUTO 19005KT 10SM CLR 05/M03 A3039 RMK AO2 SLP310 T00501028 58016
Loading
Personal Weather Stations






























Interactive Weather Map New forecast layout! Learn more

10-Day Weather Forecast

Advertisements
Track Severe Weather on mobile